createdAt,value
2023-03-16T00:00:28.152Z,63.83
2023-03-16T00:02:57.326Z,61.90
2023-03-16T00:05:40.057Z,68.20
2023-03-16T00:08:10.669Z,94.17
2023-03-16T00:10:46.884Z,82.23
2023-03-16T00:13:16.303Z,81.33
2023-03-16T00:15:52.123Z,91.50
2023-03-16T00:18:21.129Z,87.03
2023-03-16T00:20:53.274Z,96.33
2023-03-16T00:23:27.312Z,104.40
2023-03-16T00:25:58.891Z,101.13
2023-03-16T00:28:30.319Z,100.53
2023-03-16T00:30:59.425Z,89.93
2023-03-16T00:33:28.749Z,89.60
2023-03-16T00:36:03.493Z,89.70
2023-03-16T00:38:34.970Z,95.53
2023-03-16T00:41:06.751Z,107.00
2023-03-16T00:43:42.504Z,113.60
2023-03-16T00:46:13.760Z,106.13
2023-03-16T00:48:44.092Z,99.07
2023-03-16T00:51:15.550Z,96.60
2023-03-16T00:53:46.326Z,92.93
2023-03-16T00:56:17.634Z,84.67
2023-03-16T00:58:46.570Z,86.43
2023-03-16T01:01:19.135Z,94.17
2023-03-16T01:03:48.441Z,86.87
2023-03-16T01:06:20.906Z,99.90
2023-03-16T01:08:50.112Z,92.93
2023-03-16T01:11:22.691Z,102.90
2023-03-16T01:13:54.512Z,108.53
2023-03-16T01:16:24.577Z,109.00
2023-03-16T01:18:54.652Z,121.80
2023-03-16T01:21:25.327Z,121.27
2023-03-16T01:23:56.936Z,121.67
2023-03-16T01:26:28.254Z,118.50
2023-03-16T01:29:15.613Z,122.43
2023-03-16T01:31:45.149Z,130.67
2023-03-16T01:34:18.072Z,139.93
2023-03-16T01:36:49.542Z,181.00
2023-03-16T01:39:27.129Z,149.80
2023-03-16T01:41:57.786Z,137.70
2023-03-16T01:44:30.985Z,154.53
2023-03-16T01:47:04.572Z,158.77
2023-03-16T01:49:35.863Z,137.47
2023-03-16T01:52:09.569Z,127.53
2023-03-16T01:54:42.516Z,121.73
2023-03-16T01:57:15.225Z,120.60
2023-03-16T01:59:50.131Z,99.03
2023-03-16T02:02:22.955Z,94.60
2023-03-16T02:04:57.451Z,85.10
2023-03-16T02:07:29.131Z,82.27
2023-03-16T02:10:02.708Z,79.03
2023-03-16T02:12:33.340Z,78.47
2023-03-16T02:15:05.874Z,75.83
2023-03-16T02:17:36.708Z,81.43
2023-03-16T02:20:25.321Z,83.17
2023-03-16T02:22:55.890Z,81.00
2023-03-16T02:25:52.815Z,80.63
2023-03-16T02:28:32.454Z,77.53
2023-03-16T02:31:03.472Z,77.33
2023-03-16T02:33:35.330Z,83.10
2023-03-16T02:36:04.812Z,79.83
2023-03-16T02:38:34.044Z,87.10
2023-03-16T02:41:12.819Z,82.67
2023-03-16T02:43:45.472Z,80.70
2023-03-16T02:46:27.232Z,79.13
2023-03-16T02:49:04.629Z,75.83
2023-03-16T02:51:33.809Z,77.00
2023-03-16T02:54:02.852Z,81.80
2023-03-16T02:56:34.826Z,72.10
2023-03-16T02:59:03.775Z,69.97
2023-03-16T03:01:35.263Z,71.57
2023-03-16T03:04:05.317Z,71.70
2023-03-16T03:06:34.398Z,90.40
2023-03-16T03:09:04.465Z,96.40
2023-03-16T03:11:33.486Z,99.20
2023-03-16T03:14:02.381Z,103.37
2023-03-16T03:16:31.693Z,99.80
2023-03-16T03:19:02.818Z,101.17
2023-03-16T03:21:36.649Z,106.57
2023-03-16T03:24:06.194Z,114.77
2023-03-16T03:26:38.249Z,135.73
2023-03-16T03:29:12.039Z,119.37
2023-03-16T03:31:41.413Z,128.20
2023-03-16T03:34:12.029Z,128.60
2023-03-16T03:36:41.610Z,129.10
2023-03-16T03:39:10.803Z,124.43
2023-03-16T03:41:40.031Z,121.63
2023-03-16T03:44:10.144Z,105.50
2023-03-16T03:46:40.268Z,106.57
2023-03-16T03:49:10.761Z,101.97
2023-03-16T03:51:41.464Z,98.07
2023-03-16T03:54:15.205Z,103.13
2023-03-16T03:56:53.527Z,92.80
2023-03-16T03:59:43.940Z,107.97
2023-03-16T04:02:42.223Z,109.67
2023-03-16T04:05:22.100Z,114.87
2023-03-16T04:07:55.356Z,127.87
2023-03-16T04:10:25.389Z,133.70
2023-03-16T04:12:54.471Z,121.80
2023-03-16T04:15:23.480Z,111.10
2023-03-16T04:18:03.828Z,97.17
2023-03-16T04:20:34.788Z,100.43
2023-03-16T04:23:05.253Z,84.57
2023-03-16T04:25:38.663Z,95.97
2023-03-16T04:28:08.875Z,79.97
2023-03-16T04:30:43.203Z,77.73
2023-03-16T04:33:19.454Z,72.73
2023-03-16T04:35:50.217Z,69.47
2023-03-16T04:38:19.931Z,72.20
2023-03-16T04:41:01.126Z,68.17
2023-03-16T04:43:35.610Z,66.17
2023-03-16T04:46:12.204Z,57.37
2023-03-16T04:48:41.529Z,74.40
2023-03-16T04:51:12.700Z,64.43
2023-03-16T04:53:47.542Z,64.50
2023-03-16T04:56:25.976Z,63.70
2023-03-16T04:59:00.688Z,72.33
2023-03-16T05:01:33.763Z,76.67
2023-03-16T05:04:04.947Z,83.27
2023-03-16T05:06:37.872Z,83.50
2023-03-16T05:09:08.725Z,74.37
2023-03-16T05:11:40.045Z,83.70
2023-03-16T05:14:12.088Z,79.07
2023-03-16T05:16:59.502Z,74.07
2023-03-16T05:19:28.856Z,77.43
2023-03-16T05:21:59.944Z,78.57
2023-03-16T05:24:29.733Z,63.57
2023-03-16T05:26:59.030Z,52.60
2023-03-16T05:29:28.261Z,51.83
2023-03-16T05:31:57.410Z,48.70
2023-03-16T05:34:28.545Z,44.63
2023-03-16T05:36:58.905Z,46.23
2023-03-16T05:39:28.892Z,55.97
2023-03-16T05:41:58.104Z,151.87
2023-03-16T05:44:46.346Z,153.67
2023-03-16T05:47:21.300Z,190.43
2023-03-16T05:49:56.114Z,139.77
2023-03-16T05:52:35.400Z,164.00
2023-03-16T05:55:12.833Z,156.33
2023-03-16T05:57:42.903Z,127.90
2023-03-16T06:00:15.703Z,53.77
2023-03-16T06:02:52.632Z,77.90
2023-03-16T06:05:24.693Z,94.67
2023-03-16T06:07:55.540Z,76.27
2023-03-16T06:10:26.982Z,38.53
2023-03-16T06:12:56.138Z,44.30
2023-03-16T06:15:26.775Z,34.10
2023-03-16T06:17:56.919Z,38.63
2023-03-16T06:20:26.466Z,32.07
2023-03-16T06:22:58.907Z,39.87
2023-03-16T06:25:28.818Z,126.93
2023-03-16T06:27:59.417Z,186.23
2023-03-16T06:30:32.668Z,76.90
2023-03-16T06:33:02.704Z,84.83
2023-03-16T06:35:31.947Z,65.10
2023-03-16T06:38:33.825Z,49.43
2023-03-16T06:41:11.582Z,40.77
2023-03-16T06:43:41.165Z,40.33
2023-03-16T06:46:10.528Z,36.93
2023-03-16T06:48:39.951Z,42.87
2023-03-16T06:51:08.954Z,37.67
2023-03-16T06:53:40.391Z,37.17
2023-03-16T06:56:10.115Z,36.63
2023-03-16T06:58:43.331Z,36.57
2023-03-16T07:01:12.686Z,38.47
2023-03-16T07:03:42.111Z,36.20
2023-03-16T07:06:19.485Z,33.63
2023-03-16T07:08:50.034Z,35.37
2023-03-16T07:11:20.158Z,35.50
2023-03-16T07:13:49.810Z,36.03
2023-03-16T07:16:20.854Z,45.13
2023-03-16T07:18:57.443Z,51.87
2023-03-16T07:21:27.296Z,57.33
2023-03-16T07:24:07.810Z,43.77
2023-03-16T07:26:39.615Z,48.67
2023-03-16T07:29:14.827Z,49.50
2023-03-16T07:31:44.510Z,48.87
2023-03-16T07:34:20.114Z,47.27
2023-03-16T07:36:54.311Z,55.77
2023-03-16T07:39:27.301Z,41.80
2023-03-16T07:42:02.448Z,46.83
2023-03-16T07:44:40.419Z,59.30
2023-03-16T07:47:13.669Z,78.23
2023-03-16T07:49:44.531Z,74.10
2023-03-16T07:52:14.303Z,60.90
2023-03-16T07:54:48.723Z,76.47
2023-03-16T07:57:36.429Z,69.67
2023-03-16T08:00:13.197Z,100.77
2023-03-16T08:02:48.202Z,82.03
2023-03-16T08:05:27.617Z,63.33
2023-03-16T08:08:22.993Z,54.53
2023-03-16T08:10:56.914Z,49.90
2023-03-16T08:13:38.540Z,59.73
2023-03-16T08:20:06.729Z,57.53
2023-03-16T08:22:38.846Z,71.23
2023-03-16T08:25:10.903Z,80.23
2023-03-16T08:27:44.885Z,49.90
2023-03-16T08:30:16.000Z,45.63
2023-03-16T08:32:51.308Z,53.23
2023-03-16T08:35:20.568Z,46.00
2023-03-16T08:37:50.465Z,38.97
2023-03-16T08:40:22.769Z,34.03
2023-03-16T08:42:54.591Z,43.57
2023-03-16T08:45:24.571Z,83.33
2023-03-16T08:47:53.975Z,60.07
2023-03-16T08:50:22.943Z,108.90
2023-03-16T08:52:51.935Z,78.23
2023-03-16T08:55:20.930Z,52.63
2023-03-16T08:57:49.904Z,49.70
2023-03-16T09:00:21.386Z,50.67
2023-03-16T09:02:50.502Z,56.20
2023-03-16T09:05:19.582Z,31.07
2023-03-16T09:07:48.954Z,37.57
2023-03-16T09:10:20.016Z,45.17
2023-03-16T09:12:49.352Z,44.33
2023-03-16T09:15:21.076Z,53.23
2023-03-16T09:17:50.675Z,82.03
2023-03-16T09:20:26.350Z,32.17
2023-03-16T09:22:56.659Z,36.53
2023-03-16T09:25:44.143Z,45.03
2023-03-16T09:28:13.099Z,56.23
2023-03-16T09:30:43.631Z,46.53
2023-03-16T09:33:12.620Z,44.70
2023-03-16T09:35:41.567Z,81.10
2023-03-16T09:38:10.404Z,54.87
2023-03-16T09:40:40.010Z,49.63
2023-03-16T09:43:31.911Z,59.37
2023-03-16T09:46:08.723Z,59.63
2023-03-16T09:48:40.081Z,54.37
2023-03-16T09:51:14.929Z,75.93
2023-03-16T09:54:05.608Z,48.80
2023-03-16T09:56:40.759Z,56.60
2023-03-16T09:59:13.609Z,42.97
2023-03-16T10:01:54.457Z,58.60
2023-03-16T10:04:43.370Z,71.90
2023-03-16T10:07:27.861Z,61.10
2023-03-16T10:10:00.712Z,46.47
2023-03-16T10:12:37.576Z,37.53
2023-03-16T10:15:09.848Z,42.90
2023-03-16T10:17:47.755Z,48.97
2023-03-16T10:20:18.900Z,53.73
2023-03-16T10:22:55.114Z,54.97
2023-03-16T10:25:29.016Z,52.10
2023-03-16T10:27:57.986Z,47.87
2023-03-16T10:30:30.629Z,51.23
2023-03-16T10:33:03.873Z,44.83
2023-03-16T10:35:43.080Z,41.40
2023-03-16T10:38:30.711Z,31.77
2023-03-16T10:40:59.666Z,34.93
2023-03-16T10:43:29.844Z,40.13
2023-03-16T10:46:03.601Z,55.50
2023-03-16T10:48:35.774Z,46.30
2023-03-16T10:51:09.387Z,46.07
2023-03-16T10:53:42.751Z,49.20
2023-03-16T10:56:14.121Z,31.67
2023-03-16T10:58:44.631Z,29.80
2023-03-16T11:01:18.973Z,29.47
2023-03-16T11:03:53.406Z,30.93
2023-03-16T11:06:26.705Z,28.47
2023-03-16T11:08:57.565Z,27.50
2023-03-16T11:11:31.265Z,41.13
2023-03-16T11:14:01.786Z,50.77
2023-03-16T11:16:37.275Z,47.23
2023-03-16T11:19:19.133Z,47.40
2023-03-16T11:21:55.235Z,27.43
2023-03-16T11:24:28.975Z,36.17
2023-03-16T11:27:02.030Z,49.53
2023-03-16T11:29:39.865Z,40.77
2023-03-16T11:32:16.014Z,54.70
2023-03-16T11:34:48.052Z,35.27
2023-03-16T11:37:27.577Z,43.63
2023-03-16T11:40:12.603Z,36.13
2023-03-16T11:42:48.362Z,34.77
2023-03-16T11:45:24.618Z,39.27
2023-03-16T11:48:25.096Z,27.13
2023-03-16T11:51:06.549Z,49.33
2023-03-16T11:53:50.136Z,23.07
2023-03-16T11:56:27.745Z,25.50
2023-03-16T11:59:31.747Z,29.60
2023-03-16T12:02:32.240Z,26.97
2023-03-16T12:05:31.307Z,21.30
2023-03-16T12:08:14.888Z,22.30
2023-03-16T12:10:49.965Z,26.73
2023-03-16T12:13:35.575Z,31.03
2023-03-16T12:16:07.983Z,32.17
2023-03-16T12:18:44.204Z,31.47
2023-03-16T12:21:17.680Z,39.27
2023-03-16T12:23:53.660Z,26.77
2023-03-16T12:26:25.493Z,20.27
2023-03-16T12:28:55.687Z,27.27
2023-03-16T12:31:29.670Z,22.30
2023-03-16T12:34:14.922Z,31.37
2023-03-16T12:36:57.951Z,28.67
2023-03-16T12:39:43.493Z,26.07
2023-03-16T12:42:26.184Z,22.20
2023-03-16T12:45:02.375Z,19.70
2023-03-16T12:47:35.289Z,23.93
2023-03-16T12:50:11.459Z,19.67
2023-03-16T12:52:46.663Z,32.17
2023-03-16T12:55:19.567Z,31.77
2023-03-16T12:57:52.534Z,25.03
2023-03-16T13:00:22.280Z,21.60
2023-03-16T13:02:56.519Z,23.50
2023-03-16T13:05:32.452Z,28.20
2023-03-16T13:08:10.840Z,30.27
2023-03-16T13:10:41.580Z,23.90
2023-03-16T13:13:13.329Z,60.80
2023-03-16T13:15:49.092Z,33.70
2023-03-16T13:18:36.093Z,65.53
2023-03-16T13:21:37.716Z,25.23
2023-03-16T13:24:50.913Z,38.53
2023-03-16T13:27:42.821Z,26.50
2023-03-16T13:30:41.587Z,36.67
2023-03-16T13:33:22.753Z,24.80
2023-03-16T13:35:54.755Z,28.13
2023-03-16T13:38:27.643Z,40.17
2023-03-16T13:40:58.906Z,45.77
2023-03-16T13:43:33.086Z,21.57
2023-03-16T13:46:03.549Z,25.30
2023-03-16T13:48:40.446Z,23.10
2023-03-16T13:51:17.856Z,38.50
2023-03-16T13:53:47.180Z,33.10
2023-03-16T13:56:18.244Z,43.63
2023-03-16T13:58:51.485Z,74.57
2023-03-16T14:01:26.317Z,63.80
2023-03-16T14:03:58.470Z,36.40
2023-03-16T14:06:29.051Z,94.60
2023-03-16T14:09:01.493Z,53.33
2023-03-16T14:11:30.867Z,30.03
2023-03-16T14:14:02.439Z,36.20
2023-03-16T14:16:32.464Z,21.83
2023-03-16T14:19:05.085Z,28.70
2023-03-16T14:21:35.649Z,58.93
2023-03-16T14:24:06.581Z,33.80
2023-03-16T14:26:42.427Z,106.17
2023-03-16T14:29:21.277Z,52.27
2023-03-16T14:31:50.802Z,53.77
2023-03-16T14:34:29.034Z,74.50
2023-03-16T14:37:08.644Z,34.67
2023-03-16T14:39:37.955Z,16.00
2023-03-16T14:42:08.238Z,16.60
2023-03-16T14:44:40.656Z,19.43
2023-03-16T14:47:10.212Z,17.10
2023-03-16T14:49:43.211Z,36.10
2023-03-16T14:52:23.191Z,32.30
2023-03-16T14:54:52.695Z,21.17
2023-03-16T14:57:21.720Z,21.40
2023-03-16T14:59:52.301Z,20.27
2023-03-16T15:02:25.268Z,21.33
2023-03-16T15:04:55.227Z,21.30
2023-03-16T15:07:26.859Z,26.10
2023-03-16T15:09:58.458Z,31.63
2023-03-16T15:12:27.587Z,33.90
2023-03-16T15:15:16.385Z,16.83
2023-03-16T15:17:46.122Z,19.00
2023-03-16T15:20:16.909Z,22.67
2023-03-16T15:22:47.064Z,19.17
2023-03-16T15:25:35.940Z,19.87
2023-03-16T15:28:12.352Z,22.37
2023-03-16T15:30:43.428Z,27.77
2023-03-16T15:33:13.173Z,30.20
2023-03-16T15:35:43.154Z,27.93
2023-03-16T15:38:18.108Z,28.20
2023-03-16T15:40:48.233Z,32.83
2023-03-16T15:43:19.312Z,33.43
2023-03-16T15:45:50.032Z,33.33
2023-03-16T15:48:20.330Z,36.70
2023-03-16T15:50:54.535Z,30.90
2023-03-16T15:53:31.354Z,25.47
2023-03-16T15:56:04.444Z,23.43
2023-03-16T15:58:38.521Z,21.30
2023-03-16T16:01:09.949Z,26.27
2023-03-16T16:03:39.317Z,21.00
2023-03-16T16:06:12.255Z,18.80
2023-03-16T16:08:41.587Z,18.77
2023-03-16T16:11:16.822Z,21.60
2023-03-16T16:13:46.080Z,19.10
2023-03-16T16:16:18.728Z,18.13
2023-03-16T16:18:48.824Z,18.63
2023-03-16T16:21:24.495Z,19.30
2023-03-16T16:24:13.157Z,18.53
2023-03-16T16:26:53.372Z,20.23
2023-03-16T16:29:25.120Z,26.77
2023-03-16T16:31:55.906Z,28.53
2023-03-16T16:34:27.466Z,28.57
2023-03-16T16:36:57.555Z,25.57
2023-03-16T16:39:45.653Z,23.77
2023-03-16T16:42:18.511Z,24.83
2023-03-16T16:44:48.545Z,24.20
2023-03-16T16:47:37.510Z,28.17
2023-03-16T16:50:19.531Z,34.30
2023-03-16T16:52:49.890Z,41.70
2023-03-16T16:55:19.704Z,36.73
2023-03-16T16:57:50.952Z,38.47
2023-03-16T17:00:23.333Z,48.70
2023-03-16T17:02:57.701Z,47.33
2023-03-16T17:05:28.543Z,44.73
2023-03-16T17:08:03.656Z,47.90
2023-03-16T17:10:52.292Z,50.13
2023-03-16T17:13:30.845Z,45.40
2023-03-16T17:16:00.670Z,45.87
2023-03-16T17:18:30.997Z,55.60
2023-03-16T17:21:00.006Z,73.33
2023-03-16T17:23:31.331Z,62.67
2023-03-16T17:26:03.172Z,41.17
2023-03-16T17:28:38.853Z,38.90
2023-03-16T17:31:28.157Z,42.73
2023-03-16T17:33:59.009Z,45.57
2023-03-16T17:36:28.564Z,47.57
2023-03-16T17:39:04.586Z,47.87
2023-03-16T17:41:35.515Z,49.50
2023-03-16T17:44:10.157Z,50.30
2023-03-16T17:46:39.321Z,46.30
2023-03-16T17:49:17.900Z,48.30
2023-03-16T17:51:48.409Z,50.07
2023-03-16T17:54:17.397Z,50.77
2023-03-16T17:56:48.253Z,50.57
2023-03-16T17:59:19.247Z,53.60
2023-03-16T18:01:49.494Z,56.73
2023-03-16T18:04:22.164Z,56.30
2023-03-16T18:06:53.198Z,54.37
2023-03-16T18:09:22.637Z,54.03
2023-03-16T18:11:53.114Z,59.17
2023-03-16T18:14:35.342Z,65.37
2023-03-16T18:17:08.622Z,65.67
2023-03-16T18:19:43.230Z,74.07
2023-03-16T18:22:19.812Z,73.03
2023-03-16T18:24:53.234Z,70.80
2023-03-16T18:27:29.052Z,71.70
2023-03-16T18:29:58.322Z,77.37
2023-03-16T18:32:30.480Z,75.83
2023-03-16T18:35:04.124Z,80.90
2023-03-16T18:37:35.334Z,78.00
2023-03-16T18:40:09.993Z,81.77
2023-03-16T18:42:39.366Z,82.43
2023-03-16T18:45:12.130Z,68.50
2023-03-16T18:47:44.125Z,63.83
2023-03-16T18:50:21.548Z,64.17
2023-03-16T18:52:56.983Z,59.83
2023-03-16T18:55:29.646Z,61.77
2023-03-16T18:58:01.897Z,57.87
2023-03-16T19:00:32.314Z,63.83
2023-03-16T19:03:04.073Z,75.10
2023-03-16T19:05:42.491Z,69.00
2023-03-16T19:08:15.711Z,60.67
2023-03-16T19:10:50.706Z,65.57
2023-03-16T19:13:23.344Z,70.53
2023-03-16T19:15:57.887Z,86.40
2023-03-16T19:18:29.622Z,87.07
2023-03-16T19:21:01.936Z,80.63
2023-03-16T19:23:40.416Z,79.33
2023-03-16T19:26:10.836Z,75.13
2023-03-16T19:28:41.287Z,73.50
2023-03-16T19:31:19.607Z,74.73
2023-03-16T19:33:53.793Z,98.53
2023-03-16T19:36:27.415Z,100.57
2023-03-16T19:38:59.136Z,118.07
2023-03-16T19:41:32.759Z,123.23
2023-03-16T19:44:08.638Z,106.37
2023-03-16T19:46:37.757Z,92.07
2023-03-16T19:49:10.305Z,83.27
2023-03-16T19:51:41.076Z,88.67
2023-03-16T19:54:21.480Z,75.00
2023-03-16T19:56:50.775Z,87.63
2023-03-16T19:59:20.280Z,79.90
2023-03-16T20:01:49.799Z,70.73
2023-03-16T20:04:20.429Z,60.10
2023-03-16T20:06:51.875Z,58.87
2023-03-16T20:09:20.979Z,56.13
2023-03-16T20:11:50.891Z,60.00
2023-03-16T20:14:22.411Z,54.13
2023-03-16T20:16:51.575Z,52.23
2023-03-16T20:19:22.195Z,57.30
2023-03-16T20:21:52.915Z,50.77
2023-03-16T20:24:22.946Z,49.43
2023-03-16T20:27:13.673Z,57.80
2023-03-16T20:29:43.775Z,43.10
2023-03-16T20:32:21.164Z,57.20
2023-03-16T20:34:51.581Z,60.43
2023-03-16T20:37:27.476Z,67.53
2023-03-16T20:39:58.821Z,67.23
2023-03-16T20:42:31.300Z,70.63
2023-03-16T20:45:01.108Z,68.40
2023-03-16T20:47:30.365Z,63.23
2023-03-16T20:49:59.606Z,66.20
2023-03-16T20:52:31.183Z,66.83
2023-03-16T20:55:03.236Z,62.73
2023-03-16T20:57:32.655Z,62.03
2023-03-16T21:00:01.578Z,75.17
2023-03-16T21:02:34.180Z,66.10
2023-03-16T21:05:05.721Z,59.43
2023-03-16T21:07:36.301Z,59.13
2023-03-16T21:10:05.433Z,58.37
2023-03-16T21:12:37.213Z,67.07
2023-03-16T21:15:16.941Z,77.90
2023-03-16T21:17:46.017Z,72.97
2023-03-16T21:20:17.376Z,95.40
2023-03-16T21:22:48.183Z,96.73
2023-03-16T21:25:21.533Z,106.23
2023-03-16T21:27:51.361Z,100.87
2023-03-16T21:30:27.117Z,100.03
2023-03-16T21:32:57.439Z,93.17
2023-03-16T21:35:34.676Z,94.17
2023-03-16T21:38:14.783Z,104.20
2023-03-16T21:40:44.255Z,89.63
2023-03-16T21:43:13.772Z,100.23
2023-03-16T21:45:42.903Z,94.20
2023-03-16T21:48:17.344Z,100.97
2023-03-16T21:50:47.038Z,103.83
2023-03-16T21:53:26.169Z,111.50
2023-03-16T21:55:55.915Z,120.67
2023-03-16T21:58:25.665Z,120.10
2023-03-16T22:00:56.374Z,116.03
2023-03-16T22:03:32.913Z,116.30
2023-03-16T22:06:07.409Z,110.93
2023-03-16T22:08:37.757Z,110.13
2023-03-16T22:11:15.916Z,104.93
2023-03-16T22:13:44.943Z,131.97
2023-03-16T22:16:16.541Z,139.83
2023-03-16T22:18:47.303Z,120.17
2023-03-16T22:21:31.209Z,103.40
2023-03-16T22:24:02.547Z,106.03
2023-03-16T22:26:32.108Z,98.83
2023-03-16T22:29:02.040Z,84.33
2023-03-16T22:31:35.112Z,90.73
2023-03-16T22:34:04.819Z,87.73
2023-03-16T22:36:34.816Z,94.33
2023-03-16T22:39:12.351Z,96.27
2023-03-16T22:41:41.385Z,113.97
2023-03-16T22:44:20.198Z,138.73
2023-03-16T22:46:51.281Z,129.23
2023-03-16T22:49:22.673Z,109.57
2023-03-16T22:51:53.052Z,97.30
2023-03-16T22:54:27.790Z,136.80
2023-03-16T22:56:57.114Z,121.73
2023-03-16T22:59:28.502Z,122.30
2023-03-16T23:01:57.976Z,141.57
2023-03-16T23:04:32.734Z,90.57
2023-03-16T23:07:04.018Z,98.47
2023-03-16T23:09:34.439Z,97.13
2023-03-16T23:12:03.502Z,111.17
2023-03-16T23:14:36.625Z,93.43
2023-03-16T23:17:05.823Z,86.17
2023-03-16T23:19:36.283Z,79.13
2023-03-16T23:22:07.148Z,85.43
2023-03-16T23:24:37.902Z,91.10
2023-03-16T23:27:15.916Z,97.07
2023-03-16T23:29:44.918Z,103.27
2023-03-16T23:32:14.701Z,109.43
2023-03-16T23:34:43.661Z,108.20
2023-03-16T23:37:12.857Z,104.47
2023-03-16T23:39:43.465Z,109.57
2023-03-16T23:42:12.803Z,100.50
2023-03-16T23:45:02.393Z,108.70
2023-03-16T23:47:31.449Z,84.90
2023-03-16T23:50:00.560Z,90.63
2023-03-16T23:52:29.466Z,82.90
2023-03-16T23:55:01.898Z,98.53
2023-03-16T23:57:31.373Z,94.20
